LIPX/VRN METAR and TAF weather

Enter ICAO airport designator
Station Type Date Time Source
LIPX METAR 2019/10/23 13:20 UTC NOAA

LIPX 231320Z 11005KT 9999 FEW070 23/15 Q1018


Station Type Date Time Source
LIPX Decoded METAR 2019/10/23 13:20 UTC NOAA

Verona / Villafranca, Italy (LIPX) 45-23N 010-52E 68M
Oct 23, 2019 - 09:20 AM EDT / 2019.10.23 1320 UTC
Wind: from the ESE (110 degrees) at 6 MPH (5 KT):0
Visibility: greater than 7 mile(s):0
Sky conditions: mostly clear
Temperature: 73 F (23 C)
Dew Point: 59 F (15 C)
Relative Humidity: 60%
Pressure (altimeter): 30.06 in. Hg (1018 hPa)
ob: LIPX 231320Z 11005KT 9999 FEW070 23/15 Q1018
cycle: 13

Station Type Date Time Source
LIPX TAF 2014/04/22 15:24 UTC NOAA

TAF LIPX 221400Z 2215/2324 VRB05KT 9999 SCT030 SCT070
TEMPO 2215/2218 SCT025CB SCT080 PROB30
TEMPO 2215/2218 TS

Example: see airport list